createdAt,value
2023-01-17T00:04:53.813Z,99242.13
2023-01-17T00:09:55.906Z,99248.00
2023-01-17T00:14:58.432Z,99241.25
2023-01-17T00:20:00.311Z,99249.84
2023-01-17T00:25:02.188Z,99240.34
2023-01-17T00:30:06.340Z,99235.25
2023-01-17T00:35:08.646Z,99231.00
2023-01-17T00:40:11.085Z,99235.50
2023-01-17T00:45:12.952Z,99228.72
2023-01-17T00:50:15.786Z,99236.56
2023-01-17T00:55:17.676Z,99244.28
2023-01-17T01:00:19.680Z,99246.78
2023-01-17T01:05:21.691Z,99241.72
2023-01-17T01:10:23.641Z,99245.06
2023-01-17T01:15:25.526Z,99247.59
2023-01-17T01:20:27.421Z,99228.75
2023-01-17T01:25:29.502Z,99227.75
2023-01-17T01:30:31.377Z,99231.25
2023-01-17T01:35:33.269Z,99220.03
2023-01-17T01:40:35.124Z,99228.75
2023-01-17T01:45:37.076Z,99233.13
2023-01-17T01:50:39.105Z,99216.72
2023-01-17T01:55:41.184Z,99214.09
2023-01-17T02:00:43.158Z,99215.81
2023-01-17T02:05:45.135Z,99220.09
2023-01-17T02:10:47.207Z,99226.19
2023-01-17T02:16:03.800Z,99221.25
2023-01-17T02:21:20.781Z,99228.09
2023-01-17T02:26:37.605Z,99215.03
2023-01-17T02:31:54.387Z,99207.38
2023-01-17T02:37:01.236Z,99197.06
2023-01-17T02:42:14.139Z,99206.50
2023-01-17T02:47:23.771Z,99208.19
2023-01-17T02:53:00.298Z,99196.28
2023-01-17T02:58:35.342Z,99189.34
2023-01-17T03:03:52.316Z,99185.22
2023-01-17T03:08:54.174Z,99186.09
2023-01-17T03:13:57.109Z,99177.53
2023-01-17T03:18:59.069Z,99191.25
2023-01-17T03:24:01.031Z,99188.69
2023-01-17T03:29:02.886Z,99187.75
2023-01-17T03:34:04.717Z,99178.41
2023-01-17T03:39:06.725Z,99183.72
2023-01-17T03:44:08.672Z,99182.91
2023-01-17T03:49:10.593Z,99171.63
2023-01-17T03:54:12.547Z,99173.38
2023-01-17T03:59:14.576Z,99171.63
2023-01-17T04:04:16.406Z,99179.38
2023-01-17T04:09:19.745Z,99182.72
2023-01-17T04:14:22.050Z,99193.06
2023-01-17T04:19:24.011Z,99197.31
2023-01-17T04:24:26.117Z,99203.28
2023-01-17T04:29:28.014Z,99197.38
2023-01-17T04:34:30.006Z,99207.78
2023-01-17T04:39:31.949Z,99203.56
2023-01-17T04:44:33.771Z,99201.88
2023-01-17T04:49:35.634Z,99207.03
2023-01-17T04:54:37.721Z,99202.81
2023-01-17T04:59:39.602Z,99202.84
2023-01-17T05:04:41.543Z,99199.41
2023-01-17T05:09:43.403Z,99196.88
2023-01-17T05:14:45.292Z,99197.66
2023-01-17T05:19:47.104Z,99189.94
2023-01-17T05:24:49.036Z,99191.63
2023-01-17T05:29:50.930Z,99194.19
2023-01-17T05:34:54.089Z,99192.56
2023-01-17T05:39:55.990Z,99196.91
2023-01-17T05:44:57.748Z,99190.94
2023-01-17T05:49:59.638Z,99202.09
2023-01-17T05:55:01.468Z,99205.56
2023-01-17T06:00:03.600Z,99205.63
2023-01-17T06:05:05.941Z,99202.09
2023-01-17T06:10:08.148Z,99198.84
2023-01-17T06:15:10.488Z,99203.03
2023-01-17T06:20:12.460Z,99215.09
2023-01-17T06:25:14.489Z,99209.13
2023-01-17T06:30:16.500Z,99207.41
2023-01-17T06:35:18.310Z,99203.97
2023-01-17T06:40:20.137Z,99205.91
2023-01-17T06:45:21.925Z,99206.81
2023-01-17T06:50:23.779Z,99211.16
2023-01-17T06:55:26.512Z,99207.66
2023-01-17T07:00:29.349Z,99205.91
2023-01-17T07:05:31.279Z,99208.66
2023-01-17T07:10:33.147Z,99206.16
2023-01-17T07:15:34.995Z,99211.34
2023-01-17T07:20:36.825Z,99216.50
2023-01-17T07:25:38.764Z,99216.59
2023-01-17T07:30:40.573Z,99217.44
2023-01-17T07:35:42.441Z,99211.63
2023-01-17T07:40:44.719Z,99202.88
2023-01-17T07:45:50.031Z,99213.28
2023-01-17T07:50:53.296Z,99210.69
2023-01-17T07:55:55.373Z,99211.59
2023-01-17T08:01:07.769Z,99217.59
2023-01-17T08:06:18.968Z,99215.84
2023-01-17T08:11:20.790Z,99224.47
2023-01-17T08:16:22.911Z,99220.22
2023-01-17T08:21:24.763Z,99223.75
2023-01-17T08:26:27.184Z,99224.69
2023-01-17T08:31:30.594Z,99212.59
2023-01-17T08:36:32.493Z,99211.81
2023-01-17T08:41:34.314Z,99212.66
2023-01-17T08:46:38.359Z,99200.59
2023-01-17T08:51:40.397Z,99213.59
2023-01-17T08:56:42.354Z,99214.47
2023-01-17T09:01:44.404Z,99206.69
2023-01-17T09:06:46.344Z,99200.69
2023-01-17T09:11:48.220Z,99213.75
2023-01-17T09:16:50.132Z,99204.28
2023-01-17T09:21:52.003Z,99206.91
2023-01-17T09:26:53.904Z,99203.44
2023-01-17T09:31:55.890Z,99200.06
2023-01-17T09:36:57.704Z,99194.03
2023-01-17T09:42:21.877Z,99181.97
2023-01-17T09:47:43.475Z,99194.03
2023-01-17T09:52:45.413Z,99188.94
2023-01-17T09:58:00.705Z,99189.78
2023-01-17T10:03:20.804Z,99200.16
2023-01-17T10:08:37.988Z,99186.31
2023-01-17T10:13:55.816Z,99194.09
2023-01-17T10:19:09.775Z,99191.50
2023-01-17T10:24:46.207Z,99191.50
2023-01-17T10:29:48.150Z,99179.41
2023-01-17T10:34:51.174Z,99175.97
2023-01-17T10:39:54.277Z,99190.69
2023-01-17T10:45:01.217Z,99179.47
2023-01-17T10:50:04.433Z,99187.25
2023-01-17T10:55:43.456Z,99182.03
2023-01-17T11:00:50.672Z,99182.06
2023-01-17T11:06:15.422Z,99182.91
2023-01-17T11:11:17.551Z,99182.06
2023-01-17T11:16:27.554Z,99188.97
2023-01-17T11:21:29.531Z,99182.91
2023-01-17T11:26:32.474Z,99191.56
2023-01-17T11:31:34.285Z,99181.19
2023-01-17T11:36:36.179Z,99174.28
2023-01-17T11:41:39.653Z,99169.09
2023-01-17T11:46:41.575Z,99182.06
2023-01-17T11:51:43.436Z,99180.34
2023-01-17T11:56:45.200Z,99189.84
2023-01-17T12:02:12.277Z,99186.38
2023-01-17T12:07:33.198Z,99187.25
2023-01-17T12:12:45.459Z,99182.94
2023-01-17T12:18:02.043Z,99184.69
2023-01-17T12:23:07.878Z,99174.31
2023-01-17T12:28:41.795Z,99188.16
2023-01-17T12:34:07.111Z,99182.06
2023-01-17T12:39:10.395Z,99176.00
2023-01-17T12:44:13.949Z,99186.41
2023-01-17T12:49:28.068Z,99171.69
2023-01-17T12:54:32.001Z,99164.75
2023-01-17T12:59:46.387Z,99168.22
2023-01-17T13:04:58.786Z,99180.34
2023-01-17T13:10:04.380Z,99182.06
2023-01-17T13:15:14.122Z,99186.41
2023-01-17T13:20:22.139Z,99184.66
2023-01-17T13:25:38.951Z,99182.06
2023-01-17T13:31:09.245Z,99178.59
2023-01-17T13:36:11.115Z,99184.66
2023-01-17T13:41:16.696Z,99180.34
2023-01-17T13:46:18.749Z,99174.25
2023-01-17T13:51:20.584Z,99179.44
2023-01-17T13:56:22.374Z,99167.31
2023-01-17T14:01:24.189Z,99163.00
2023-01-17T14:06:28.590Z,99171.63
2023-01-17T14:11:34.209Z,99172.53
2023-01-17T14:16:36.019Z,99165.59
2023-01-17T14:21:37.842Z,99162.13
2023-01-17T14:26:58.027Z,99168.16
2023-01-17T14:32:01.630Z,99165.59
2023-01-17T14:37:23.029Z,99171.63
2023-01-17T14:42:29.703Z,99173.34
2023-01-17T14:47:33.829Z,99169.00
2023-01-17T14:52:35.660Z,99164.69
2023-01-17T14:57:37.530Z,99167.31
2023-01-17T15:02:45.815Z,99153.47
2023-01-17T15:07:55.581Z,99148.28
2023-01-17T15:12:58.337Z,99145.72
2023-01-17T15:18:29.192Z,99154.38
2023-01-17T15:23:33.061Z,99142.28
2023-01-17T15:28:35.169Z,99138.81
2023-01-17T15:33:39.332Z,99142.28
2023-01-17T15:38:45.632Z,99155.25
2023-01-17T15:43:47.498Z,99153.53
2023-01-17T15:48:49.285Z,99144.00
2023-01-17T15:53:51.160Z,99150.91
2023-01-17T15:58:53.141Z,99150.03
2023-01-17T16:03:55.171Z,99142.25
2023-01-17T16:08:57.061Z,99143.97
2023-01-17T16:13:58.996Z,99141.38
2023-01-17T16:19:01.001Z,99136.22
2023-01-17T16:24:02.934Z,99118.03
2023-01-17T16:29:04.842Z,99116.31
2023-01-17T16:34:12.828Z,99120.66
2023-01-17T16:39:14.584Z,99124.97
2023-01-17T16:44:16.457Z,99132.75
2023-01-17T16:49:18.323Z,99128.44
2023-01-17T16:54:20.185Z,99137.97
2023-01-17T16:59:22.114Z,99136.22
2023-01-17T17:04:24.025Z,99118.94
2023-01-17T17:09:25.910Z,99129.31
2023-01-17T17:14:28.051Z,99123.25
2023-01-17T17:19:30.024Z,99120.69
2023-01-17T17:24:32.032Z,99134.50
2023-01-17T17:29:33.886Z,99137.13
2023-01-17T17:34:36.056Z,99147.50
2023-01-17T17:39:38.432Z,99147.47
2023-01-17T17:44:40.422Z,99163.91
2023-01-17T17:49:43.107Z,99162.19
2023-01-17T17:54:44.800Z,99170.81
2023-01-17T17:59:46.659Z,99156.13
2023-01-17T18:04:48.608Z,99169.06
2023-01-17T18:09:50.635Z,99181.19
2023-01-17T18:14:52.511Z,99162.16
2023-01-17T18:19:54.380Z,99167.34
2023-01-17T18:24:56.190Z,99160.44
2023-01-17T18:30:00.085Z,99162.16
2023-01-17T18:35:02.087Z,99169.06
2023-01-17T18:40:04.813Z,99158.69
2023-01-17T18:45:07.099Z,99168.19
2023-01-17T18:50:09.559Z,99162.16
2023-01-17T18:55:11.416Z,99156.13
2023-01-17T19:00:15.062Z,99146.59
2023-01-17T19:05:17.073Z,99147.47
2023-01-17T19:10:19.053Z,99134.50
2023-01-17T19:15:20.996Z,99136.22
2023-01-17T19:20:22.905Z,99126.72
2023-01-17T19:25:24.859Z,99142.25
2023-01-17T19:30:26.726Z,99127.53
2023-01-17T19:35:28.632Z,99154.34
2023-01-17T19:40:30.870Z,99163.00
2023-01-17T19:45:33.066Z,99168.19
2023-01-17T19:50:35.014Z,99176.81
2023-01-17T19:55:39.552Z,99169.06
2023-01-17T20:00:46.470Z,99157.81
2023-01-17T20:05:56.179Z,99159.53
2023-01-17T20:11:04.987Z,99160.31
2023-01-17T20:16:08.252Z,99149.09
2023-01-17T20:21:17.952Z,99156.91
2023-01-17T20:26:26.657Z,99149.13
2023-01-17T20:31:28.574Z,99143.09
2023-01-17T20:36:30.600Z,99158.66
2023-01-17T20:41:37.154Z,99152.59
2023-01-17T20:46:40.704Z,99156.91
2023-01-17T20:51:43.444Z,99149.97
2023-01-17T20:56:45.443Z,99162.00
2023-01-17T21:01:47.815Z,99158.53
2023-01-17T21:06:49.864Z,99151.66
2023-01-17T21:11:51.794Z,99177.59
2023-01-17T21:16:53.770Z,99181.03
2023-01-17T21:21:55.729Z,99175.84
2023-01-17T21:26:57.628Z,99178.44
2023-01-17T21:31:59.614Z,99179.25
2023-01-17T21:37:01.515Z,99170.63
2023-01-17T21:42:03.625Z,99164.47
2023-01-17T21:47:05.556Z,99172.09
2023-01-17T21:52:07.467Z,99178.22
2023-01-17T21:57:09.759Z,99185.97
2023-01-17T22:02:11.675Z,99184.22
2023-01-17T22:07:13.615Z,99185.97
2023-01-17T22:12:15.513Z,99165.16
2023-01-17T22:17:17.375Z,99159.91
2023-01-17T22:22:19.597Z,99138.38
2023-01-17T22:27:21.501Z,99149.59
2023-01-17T22:32:23.393Z,99140.94
2023-01-17T22:37:25.285Z,99140.91
2023-01-17T22:42:27.191Z,99133.13
2023-01-17T22:47:29.198Z,99118.44
2023-01-17T22:52:31.347Z,99123.56
2023-01-17T22:57:33.347Z,99123.63
2023-01-17T23:02:35.334Z,99115.03
2023-01-17T23:07:37.478Z,99127.09
2023-01-17T23:12:39.731Z,99120.16
2023-01-17T23:17:41.553Z,99112.38
2023-01-17T23:22:43.566Z,99123.63
2023-01-17T23:27:46.226Z,99141.78
2023-01-17T23:32:48.927Z,99121.97
2023-01-17T23:37:50.739Z,99131.47
2023-01-17T23:42:52.662Z,99136.63
2023-01-17T23:47:54.580Z,99137.56
2023-01-17T23:52:56.893Z,99130.69
2023-01-17T23:57:58.929Z,99126.31
